Time;durP1;ratioP1;P1;durP2;ratioP2;P2;SDS_P1;SDS_P2;PMS_P1;PMS_P2;Temp;Humidity;BMP_temperature;BMP_pressure;BME280_temperature;BME280_humidity;BME280_pressure;Samples;Min_cycle;Max_cycle;Signal;HPM_P1;HPM_P2
2021/01/24 00:01:07;;;;;;;7.77;4.97;;;2.00;99.90;;;;;;5076427;28;20255;-75
2021/01/24 00:03:33;;;;;;;6.60;5.23;;;2.00;99.90;;;;;;5076418;28;20211;-75
2021/01/24 00:06:00;;;;;;;7.90;5.70;;;1.90;99.90;;;;;;5076673;28;20289;-75
2021/01/24 00:08:26;;;;;;;7.53;5.03;;;1.90;99.90;;;;;;5076577;28;20209;-75
2021/01/24 00:10:53;;;;;;;6.37;5.10;;;1.90;99.90;;;;;;5076413;28;20206;-74
2021/01/24 00:13:20;;;;;;;5.63;4.47;;;1.90;99.90;;;;;;5076738;28;20203;-74
2021/01/24 00:15:46;;;;;;;7.57;5.50;;;1.90;99.90;;;;;;5076197;28;20765;-74
2021/01/24 00:18:12;;;;;;;6.37;5.00;;;1.90;99.90;;;;;;5062454;28;20195;-74
2021/01/24 00:20:39;;;;;;;7.10;4.03;;;1.90;99.90;;;;;;5076367;28;20207;-75
2021/01/24 00:23:05;;;;;;;5.87;4.60;;;1.80;99.90;;;;;;5076365;28;20207;-74
2021/01/24 00:25:31;;;;;;;5.70;4.53;;;1.70;99.90;;;;;;5075656;28;20293;-74
2021/01/24 00:27:59;;;;;;;4.80;3.60;;;1.80;99.90;;;;;;5076210;28;20256;-77
2021/01/24 00:30:25;;;;;;;4.40;3.63;;;1.90;99.90;;;;;;5076189;28;20305;-74
2021/01/24 00:32:51;;;;;;;3.90;3.37;;;1.80;99.90;;;;;;5075869;28;20259;-73
2021/01/24 00:35:20;;;;;;;4.37;3.23;;;1.80;99.90;;;;;;5075958;28;20634;-74
2021/01/24 00:37:47;;;;;;;6.07;3.93;;;1.80;99.90;;;;;;5075888;28;20191;-74
2021/01/24 00:40:13;;;;;;;5.13;3.27;;;1.80;99.90;;;;;;5075950;28;20203;-74
2021/01/24 00:42:39;;;;;;;4.10;3.70;;;1.80;99.90;;;;;;5075686;28;20203;-76
2021/01/24 00:45:09;;;;;;;4.83;4.13;;;1.80;99.90;;;;;;5075835;28;20294;-73
2021/01/24 00:47:36;;;;;;;4.83;4.30;;;1.80;99.90;;;;;;5075662;28;20203;-74
2021/01/24 00:50:03;;;;;;;4.73;3.70;;;1.80;99.90;;;;;;5075719;28;20205;-74
2021/01/24 00:52:29;;;;;;;4.23;3.77;;;1.70;99.90;;;;;;5075526;28;20195;-74
2021/01/24 00:54:55;;;;;;;6.00;4.37;;;1.60;99.90;;;;;;5075489;28;20203;-75
2021/01/24 00:57:22;;;;;;;4.73;4.20;;;1.80;99.90;;;;;;5075661;28;20203;-76
2021/01/24 00:59:48;;;;;;;5.43;4.37;;;1.70;99.90;;;;;;5074858;28;20199;-75
2021/01/24 01:02:16;;;;;;;5.90;4.77;;;1.70;99.90;;;;;;5075276;28;20206;-74
2021/01/24 01:04:42;;;;;;;8.77;6.00;;;1.80;99.90;;;;;;5074835;28;20576;-75
2021/01/24 01:07:08;;;;;;;5.53;4.87;;;1.80;99.90;;;;;;5075238;28;20203;-74
2021/01/24 01:09:36;;;;;;;7.90;5.63;;;1.90;99.90;;;;;;5075408;28;20247;-74
2021/01/24 01:12:02;;;;;;;9.63;6.37;;;2.00;99.90;;;;;;5075189;28;20207;-76
2021/01/24 01:14:28;;;;;;;8.47;7.10;;;1.90;99.90;;;;;;5075087;28;20198;-74
2021/01/24 01:16:55;;;;;;;10.33;6.77;;;1.90;99.90;;;;;;5075175;28;20258;-75
2021/01/24 01:19:22;;;;;;;9.47;7.50;;;2.00;99.90;;;;;;5074951;28;20244;-74
2021/01/24 01:21:48;;;;;;;9.23;7.20;;;1.90;99.90;;;;;;5075369;28;20212;-74
2021/01/24 01:24:15;;;;;;;9.20;7.57;;;2.00;99.90;;;;;;5075161;28;20573;-74
2021/01/24 01:26:41;;;;;;;9.17;7.20;;;2.00;99.90;;;;;;5075159;28;20570;-74
2021/01/24 01:29:07;;;;;;;9.23;6.90;;;2.20;99.90;;;;;;5075042;28;21545;-74
2021/01/24 01:31:34;;;;;;;9.53;7.40;;;2.10;99.90;;;;;;5074720;28;20279;-74
2021/01/24 01:34:00;;;;;;;11.40;8.00;;;2.00;99.90;;;;;;5075044;28;20207;-74
2021/01/24 01:36:27;;;;;;;10.27;7.67;;;2.00;99.90;;;;;;5075041;28;20218;-74
2021/01/24 01:38:54;;;;;;;10.17;7.77;;;2.00;99.90;;;;;;5075105;28;20224;-74
2021/01/24 01:41:20;;;;;;;10.03;7.60;;;2.00;99.90;;;;;;5074801;28;20199;-74
2021/01/24 01:43:46;;;;;;;8.03;6.90;;;1.90;99.90;;;;;;5074608;28;20290;-75
2021/01/24 01:46:19;;;;;;;8.83;6.77;;;1.90;99.90;;;;;;5074594;28;20202;-74
2021/01/24 01:48:45;;;;;;;7.20;6.20;;;1.90;99.90;;;;;;5074975;28;20203;-74
2021/01/24 01:51:11;;;;;;;8.20;6.73;;;1.90;99.90;;;;;;5074580;28;20198;-74
2021/01/24 01:53:39;;;;;;;7.20;5.17;;;1.90;99.90;;;;;;5074865;28;20337;-75
2021/01/24 01:56:06;;;;;;;7.87;5.50;;;1.90;99.90;;;;;;5074324;28;20230;-74
2021/01/24 01:58:32;;;;;;;7.60;5.30;;;1.80;99.90;;;;;;5074791;28;20190;-74
2021/01/24 02:01:01;;;;;;;7.53;5.27;;;1.80;99.90;;;;;;5074726;28;20198;-74
2021/01/24 02:03:38;;;;;;;6.20;5.03;;;1.80;99.90;;;;;;5074046;28;20203;-76
2021/01/24 02:06:13;;;;;;;8.27;5.77;;;1.80;99.90;;;;;;5074321;28;20247;-74
2021/01/24 02:08:46;;;;;;;8.57;6.17;;;1.80;99.90;;;;;;5060716;28;20199;-74
2021/01/24 02:11:18;;;;;;;8.83;6.37;;;1.80;99.90;;;;;;5073026;28;20248;-73
2021/01/24 02:13:55;;;;;;;9.83;6.70;;;1.90;99.90;;;;;;5060364;28;20195;-74
2021/01/24 02:16:22;;;;;;;9.90;7.97;;;1.80;99.90;;;;;;5074112;28;20297;-74
2021/01/24 02:18:52;;;;;;;13.07;8.03;;;1.70;99.90;;;;;;5074041;28;20201;-74
2021/01/24 02:21:29;;;;;;;10.77;8.63;;;1.70;99.90;;;;;;5074146;28;20224;-75
2021/01/24 02:24:00;;;;;;;13.03;9.60;;;1.80;99.90;;;;;;5073637;28;20205;-74
2021/01/24 02:26:36;;;;;;;14.83;10.27;;;1.80;99.90;;;;;;5074153;28;20255;-75
2021/01/24 02:29:17;;;;;;;19.30;12.17;;;1.80;99.90;;;;;;5073439;28;20657;-75
2021/01/24 02:31:46;;;;;;;16.03;11.70;;;1.90;99.90;;;;;;5074033;28;20253;-75
2021/01/24 02:34:15;;;;;;;16.90;12.20;;;1.80;99.90;;;;;;5073800;28;20207;-75
2021/01/24 02:36:42;;;;;;;17.63;13.20;;;1.90;99.90;;;;;;5073546;28;20244;-75
2021/01/24 02:39:09;;;;;;;19.37;13.40;;;1.70;99.90;;;;;;5073595;28;20278;-75
2021/01/24 02:41:35;;;;;;;16.93;12.73;;;1.80;99.90;;;;;;5073522;28;20203;-74
2021/01/24 02:44:03;;;;;;;19.07;14.90;;;1.90;99.90;;;;;;5073439;28;20209;-74
2021/01/24 02:46:31;;;;;;;19.47;14.37;;;1.80;99.90;;;;;;5065609;28;20207;-75
2021/01/24 02:48:59;;;;;;;19.53;13.57;;;1.90;99.90;;;;;;5073374;28;20240;-75
2021/01/24 02:51:26;;;;;;;19.27;14.17;;;1.80;99.90;;;;;;5073135;28;20256;-74
2021/01/24 02:53:54;;;;;;;16.60;13.50;;;2.00;99.90;;;;;;5073389;28;20199;-75
2021/01/24 02:56:21;;;;;;;15.77;12.47;;;1.80;99.90;;;;;;5073306;28;20267;-75
2021/01/24 02:58:49;;;;;;;15.07;12.00;;;1.80;99.90;;;;;;5073017;28;20199;-74
2021/01/24 03:01:16;;;;;;;19.20;12.30;;;1.90;99.90;;;;;;5073528;28;20541;-74
2021/01/24 03:03:42;;;;;;;18.07;12.43;;;1.80;99.90;;;;;;5073195;28;20552;-75
2021/01/24 03:06:11;;;;;;;14.77;12.40;;;1.80;99.90;;;;;;5073280;28;20203;-75
2021/01/24 03:08:38;;;;;;;14.40;11.90;;;1.80;99.90;;;;;;5073237;28;20206;-74
2021/01/24 03:11:06;;;;;;;18.13;13.33;;;1.80;99.90;;;;;;5059286;28;20642;-75
2021/01/24 03:13:40;;;;;;;16.33;12.43;;;1.70;99.90;;;;;;5073346;28;20198;-75
2021/01/24 03:16:07;;;;;;;16.90;12.87;;;1.80;99.90;;;;;;5072738;28;20666;-75
2021/01/24 03:18:38;;;;;;;14.80;11.60;;;1.80;99.90;;;;;;5072977;28;20209;-75
2021/01/24 03:21:05;;;;;;;16.57;12.67;;;1.80;99.90;;;;;;5072689;28;20195;-75
2021/01/24 03:23:33;;;;;;;15.90;12.80;;;1.80;99.90;;;;;;5072855;28;20199;-74
2021/01/24 03:26:00;;;;;;;16.20;12.10;;;1.80;99.90;;;;;;5072570;28;20653;-75
2021/01/24 03:28:27;;;;;;;16.03;12.07;;;1.80;99.90;;;;;;5073077;28;20558;-75
2021/01/24 03:30:53;;;;;;;17.73;11.67;;;1.80;99.90;;;;;;5072545;28;20646;-75
2021/01/24 03:33:22;;;;;;;21.87;12.57;;;1.70;99.90;;;;;;5072923;28;20203;-75
2021/01/24 03:36:04;;;;;;;12.47;10.57;;;1.70;99.90;;;;;;5110363;27;20957;-74
2021/01/24 03:38:31;;;;;;;16.20;11.63;;;1.60;99.90;;;;;;5103307;28;20197;-75
2021/01/24 03:40:58;;;;;;;17.27;11.53;;;1.60;99.90;;;;;;5104502;28;20556;-75
2021/01/24 03:43:24;;;;;;;21.00;11.57;;;1.60;99.90;;;;;;5096348;28;20204;-75
2021/01/24 03:45:50;;;;;;;16.63;11.20;;;1.60;99.90;;;;;;5110860;28;20227;-74
2021/01/24 03:48:17;;;;;;;16.33;11.23;;;1.60;99.90;;;;;;5106461;28;20552;-75
2021/01/24 03:50:43;;;;;;;15.40;10.90;;;1.60;99.90;;;;;;5100684;28;20274;-74
2021/01/24 03:53:10;;;;;;;15.33;10.07;;;1.60;99.90;;;;;;5108947;28;20204;-75
2021/01/24 03:55:37;;;;;;;16.87;11.07;;;1.60;99.90;;;;;;5103186;28;20290;-76
2021/01/24 03:58:03;;;;;;;13.37;9.97;;;1.60;99.90;;;;;;5103627;28;20570;-75
2021/01/24 04:00:29;;;;;;;14.57;10.10;;;1.60;99.90;;;;;;5110440;28;20219;-75
2021/01/24 04:02:56;;;;;;;19.40;10.73;;;1.50;99.90;;;;;;5110575;28;20228;-74
2021/01/24 04:05:22;;;;;;;16.03;9.50;;;1.50;99.90;;;;;;5095898;28;20236;-75
2021/01/24 04:07:49;;;;;;;15.10;10.13;;;1.40;99.90;;;;;;5100544;28;20194;-76
2021/01/24 04:10:16;;;;;;;19.53;10.43;;;1.50;99.90;;;;;;5104215;28;20214;-75
2021/01/24 04:12:42;;;;;;;15.13;8.93;;;1.40;99.90;;;;;;5090002;28;20201;-75
2021/01/24 04:15:09;;;;;;;18.07;8.87;;;1.50;99.90;;;;;;5089387;28;20675;-77
2021/01/24 04:17:36;;;;;;;21.37;10.13;;;1.50;99.90;;;;;;5109684;28;20190;-75
2021/01/24 04:20:03;;;;;;;15.60;9.73;;;1.40;99.90;;;;;;5110198;28;20212;-75
2021/01/24 04:22:29;;;;;;;17.13;10.00;;;1.40;99.90;;;;;;5095403;28;20197;-74
2021/01/24 04:24:55;;;;;;;14.63;9.83;;;1.40;99.90;;;;;;5099292;28;20202;-74
2021/01/24 04:27:22;;;;;;;14.20;9.73;;;1.30;99.90;;;;;;5106499;28;20202;-75
2021/01/24 04:29:49;;;;;;;17.40;9.77;;;1.30;99.90;;;;;;5109905;28;20202;-74
2021/01/24 04:32:15;;;;;;;18.43;10.60;;;1.30;99.90;;;;;;5094343;28;20251;-75
2021/01/24 04:34:41;;;;;;;16.43;9.73;;;1.40;99.90;;;;;;5096260;28;20221;-75
2021/01/24 04:37:08;;;;;;;16.23;9.53;;;1.40;99.90;;;;;;5096650;28;20548;-74
2021/01/24 04:39:34;;;;;;;18.40;10.87;;;1.30;99.90;;;;;;5103724;28;20281;-75
2021/01/24 04:42:01;;;;;;;16.77;10.70;;;1.40;99.90;;;;;;5100777;28;20609;-74
2021/01/24 04:44:28;;;;;;;17.33;9.90;;;1.30;99.90;;;;;;5095233;28;20197;-74
2021/01/24 04:46:56;;;;;;;18.47;9.50;;;1.40;99.90;;;;;;5089208;28;20675;-75
2021/01/24 04:49:23;;;;;;;18.20;11.00;;;1.40;99.90;;;;;;5077312;28;20987;-74
2021/01/24 04:51:49;;;;;;;13.53;9.07;;;1.50;99.90;;;;;;5087589;28;20603;-74
2021/01/24 04:54:17;;;;;;;15.53;10.50;;;1.50;99.90;;;;;;5078987;28;20693;-74
2021/01/24 04:56:43;;;;;;;13.47;9.80;;;1.60;99.90;;;;;;5092410;28;20194;-74
2021/01/24 04:59:09;;;;;;;17.93;10.33;;;1.50;99.90;;;;;;5086900;28;20194;-74
2021/01/24 05:01:39;;;;;;;18.53;10.43;;;1.50;99.90;;;;;;5074913;28;20202;-75
2021/01/24 05:04:07;;;;;;;17.63;10.40;;;1.50;99.90;;;;;;5082536;28;20661;-75
2021/01/24 05:06:33;;;;;;;15.13;10.43;;;1.60;99.90;;;;;;5095613;28;20202;-74
2021/01/24 05:09:00;;;;;;;16.97;9.30;;;1.50;99.90;;;;;;5095569;28;20198;-74
2021/01/24 05:11:27;;;;;;;20.57;10.80;;;1.50;99.90;;;;;;5095644;28;20216;-75
2021/01/24 05:13:53;;;;;;;12.43;9.30;;;1.70;99.90;;;;;;5077123;28;20245;-74
2021/01/24 05:16:21;;;;;;;17.80;11.40;;;1.50;99.90;;;;;;5075418;28;20225;-74
2021/01/24 05:18:57;;;;;;;19.33;11.80;;;1.50;99.90;;;;;;5074804;28;20229;-75
2021/01/24 05:21:26;;;;;;;16.03;10.43;;;1.70;99.90;;;;;;5085104;28;20193;-75
2021/01/24 05:23:55;;;;;;;19.23;11.50;;;1.60;99.90;;;;;;5092970;28;20198;-74
2021/01/24 05:26:21;;;;;;;17.33;11.17;;;1.60;99.90;;;;;;5075341;28;20257;-74
2021/01/24 05:28:48;;;;;;;16.47;10.40;;;1.70;99.90;;;;;;5074766;28;20202;-74
2021/01/24 05:31:15;;;;;;;19.20;11.20;;;1.60;99.90;;;;;;5081702;28;20198;-75
2021/01/24 05:33:45;;;;;;;14.53;10.93;;;1.70;99.90;;;;;;5094852;28;20202;-74
2021/01/24 05:36:13;;;;;;;15.63;10.80;;;1.80;99.90;;;;;;5075404;28;20320;-74
2021/01/24 05:38:39;;;;;;;16.43;11.13;;;1.70;99.90;;;;;;5074854;28;20195;-75
2021/01/24 05:41:07;;;;;;;18.30;11.83;;;1.70;99.90;;;;;;5092626;28;20190;-74
2021/01/24 05:43:37;;;;;;;21.97;12.23;;;1.60;99.90;;;;;;5094808;28;20195;-74
2021/01/24 05:46:04;;;;;;;19.30;11.10;;;1.70;99.90;;;;;;5094674;28;20206;-75
2021/01/24 05:48:32;;;;;;;18.47;12.57;;;1.80;99.90;;;;;;5094880;28;20208;-74
2021/01/24 05:51:01;;;;;;;20.17;11.67;;;1.80;99.90;;;;;;5079204;28;20202;-74
2021/01/24 05:53:29;;;;;;;20.77;12.33;;;1.80;99.90;;;;;;5078214;28;20240;-74
2021/01/24 05:55:56;;;;;;;17.27;10.40;;;1.70;99.90;;;;;;5094567;28;20225;-74
2021/01/24 05:58:24;;;;;;;16.30;10.70;;;1.80;99.90;;;;;;5077322;28;20210;-76
2021/01/24 06:00:52;;;;;;;16.40;11.20;;;1.70;99.90;;;;;;5083009;28;20318;-74
2021/01/24 06:03:19;;;;;;;19.37;12.37;;;1.50;99.90;;;;;;5080101;28;20662;-74
2021/01/24 06:05:46;;;;;;;16.70;11.87;;;1.40;99.90;;;;;;5094715;28;20646;-75
2021/01/24 06:08:14;;;;;;;19.47;11.73;;;1.30;99.90;;;;;;5081153;28;20199;-74
2021/01/24 06:10:42;;;;;;;16.40;11.37;;;1.30;99.90;;;;;;5073661;28;20195;-74
2021/01/24 06:13:13;;;;;;;17.47;10.53;;;1.20;99.90;;;;;;5086082;28;20198;-74
2021/01/24 06:15:43;;;;;;;19.17;11.30;;;1.20;99.90;;;;;;5094114;28;20214;-75
2021/01/24 06:18:14;;;;;;;16.83;11.17;;;1.10;99.90;;;;;;5083002;28;20566;-75
2021/01/24 06:20:46;;;;;;;17.50;11.87;;;1.10;99.90;;;;;;5077641;28;20236;-74
2021/01/24 06:23:19;;;;;;;21.30;11.50;;;1.10;99.90;;;;;;5083746;28;20205;-74
2021/01/24 06:25:49;;;;;;;20.67;11.47;;;1.00;99.90;;;;;;5076830;28;20223;-74
2021/01/24 06:28:20;;;;;;;19.37;11.33;;;1.00;99.90;;;;;;5094234;28;20194;-74
2021/01/24 06:30:47;;;;;;;22.13;12.47;;;1.00;99.90;;;;;;5093613;28;20199;-74
2021/01/24 06:33:15;;;;;;;17.20;10.93;;;0.90;99.90;;;;;;5094214;28;20205;-74
2021/01/24 06:35:46;;;;;;;24.33;13.20;;;0.90;99.90;;;;;;5093755;28;20218;-75
2021/01/24 06:38:30;;;;;;;19.80;12.63;;;0.90;99.90;;;;;;5085551;28;20654;-74
2021/01/24 06:40:58;;;;;;;22.13;13.43;;;0.80;99.90;;;;;;5090067;28;20198;-76
2021/01/24 06:43:40;;;;;;;20.57;13.10;;;0.90;99.90;;;;;;5093988;28;20206;-75
2021/01/24 06:46:08;;;;;;;22.87;13.13;;;0.70;99.90;;;;;;5076404;28;20248;-75
2021/01/24 06:48:45;;;;;;;19.03;13.23;;;0.80;99.90;;;;;;5083010;28;20213;-75
2021/01/24 06:51:35;;;;;;;24.03;13.07;;;0.70;99.90;;;;;;5079238;28;20206;-76
2021/01/24 06:54:03;;;;;;;24.83;14.27;;;0.70;99.90;;;;;;5081339;28;20199;-75
2021/01/24 06:56:40;;;;;;;24.87;14.17;;;0.70;99.90;;;;;;5087736;28;20198;-75
2021/01/24 06:59:08;;;;;;;22.90;13.27;;;0.70;99.90;;;;;;5093673;28;20256;-75
2021/01/24 07:01:35;;;;;;;23.00;14.33;;;0.60;99.90;;;;;;5079323;28;20211;-77
2021/01/24 07:04:30;;;;;;;21.77;12.93;;;0.60;99.90;;;;;;5086882;28;20289;-75
2021/01/24 07:06:59;;;;;;;26.57;14.50;;;0.60;99.90;;;;;;5089944;28;20273;-76
2021/01/24 07:09:46;;;;;;;22.30;13.87;;;0.60;99.90;;;;;;5084113;28;20199;-76
2021/01/24 07:12:14;;;;;;;25.93;15.00;;;0.70;99.90;;;;;;5073525;28;20262;-75
2021/01/24 07:14:48;;;;;;;27.13;15.73;;;0.70;99.90;;;;;;5083105;28;20653;-75
2021/01/24 07:17:18;;;;;;;24.43;14.70;;;0.70;99.90;;;;;;5087613;28;20209;-75
2021/01/24 07:19:46;;;;;;;22.87;14.90;;;0.60;99.90;;;;;;5072918;28;20195;-75
2021/01/24 07:22:14;;;;;;;23.13;14.50;;;0.70;99.90;;;;;;5075382;28;20260;-76
2021/01/24 07:24:41;;;;;;;27.20;14.60;;;0.60;99.90;;;;;;5084322;28;20248;-75
2021/01/24 07:27:09;;;;;;;23.07;15.40;;;0.70;99.90;;;;;;5072460;28;20745;-75
2021/01/24 07:29:37;;;;;;;23.57;15.10;;;0.60;99.90;;;;;;5072763;28;20203;-75
2021/01/24 07:32:08;;;;;;;23.80;15.23;;;0.70;99.90;;;;;;5086436;28;20204;-75
2021/01/24 07:34:35;;;;;;;28.07;16.03;;;0.70;99.90;;;;;;5092755;28;20711;-75
2021/01/24 07:37:02;;;;;;;26.20;16.50;;;0.70;99.90;;;;;;5080461;28;20207;-75
2021/01/24 07:39:29;;;;;;;28.10;15.63;;;0.70;99.90;;;;;;5076784;28;20205;-75
2021/01/24 07:41:56;;;;;;;27.70;16.33;;;0.70;99.90;;;;;;5082437;28;20203;-77
2021/01/24 07:44:23;;;;;;;25.43;16.00;;;0.70;99.90;;;;;;5089429;28;21865;-75
2021/01/24 07:46:51;;;;;;;30.03;16.97;;;0.70;99.90;;;;;;5092435;28;20201;-75
2021/01/24 07:49:17;;;;;;;29.30;16.50;;;0.70;99.90;;;;;;5078450;28;20297;-76
2021/01/24 07:51:43;;;;;;;27.00;15.50;;;0.70;99.90;;;;;;5092995;28;20281;-75
2021/01/24 07:54:10;;;;;;;21.07;15.50;;;0.70;99.90;;;;;;5078877;28;20563;-75
2021/01/24 07:56:37;;;;;;;26.00;15.10;;;0.80;99.90;;;;;;5072140;28;20195;-75
2021/01/24 07:59:04;;;;;;;24.80;15.50;;;0.80;99.90;;;;;;5080591;28;20198;-75
2021/01/24 08:01:31;;;;;;;30.20;15.97;;;0.90;99.90;;;;;;5092837;28;20198;-75
2021/01/24 08:04:01;;;;;;;22.30;14.97;;;0.90;99.90;;;;;;5058509;28;20635;-75
2021/01/24 08:06:27;;;;;;;25.20;14.97;;;1.00;99.90;;;;;;5085421;28;20560;-75
2021/01/24 08:08:54;;;;;;;22.10;15.03;;;1.00;99.90;;;;;;5087892;28;20286;-75
2021/01/24 08:11:21;;;;;;;23.07;15.13;;;1.00;99.90;;;;;;5083530;28;20202;-77
2021/01/24 08:13:47;;;;;;;25.07;15.50;;;1.00;99.90;;;;;;5078350;28;20194;-75
2021/01/24 08:16:16;;;;;;;22.73;15.27;;;1.00;99.90;;;;;;5083462;28;20226;-74
2021/01/24 08:18:47;;;;;;;25.77;15.77;;;1.10;99.90;;;;;;5087840;28;20568;-75
2021/01/24 08:21:15;;;;;;;21.10;14.40;;;1.00;99.90;;;;;;5093650;28;20697;-74
2021/01/24 08:23:42;;;;;;;21.33;14.67;;;1.20;99.90;;;;;;5081632;28;20206;-75
2021/01/24 08:26:09;;;;;;;21.53;15.17;;;1.70;99.90;;;;;;5089412;28;20207;-75
2021/01/24 08:28:37;;;;;;;19.10;14.27;;;2.20;99.90;;;;;;5089206;28;20597;-75
2021/01/24 08:31:05;;;;;;;19.33;13.57;;;3.00;99.90;;;;;;5090905;28;20390;-75
2021/01/24 08:33:32;;;;;;;18.03;12.03;;;3.40;99.90;;;;;;5087784;28;20203;-75
2021/01/24 08:36:16;;;;;;;14.63;11.53;;;3.90;99.90;;;;;;5077827;28;20219;-75
2021/01/24 08:38:43;;;;;;;16.17;11.43;;;4.20;99.90;;;;;;5087222;28;20649;-75
2021/01/24 08:41:10;;;;;;;16.37;11.53;;;4.40;99.90;;;;;;5095672;28;20194;-75
2021/01/24 08:43:36;;;;;;;15.53;10.57;;;4.80;99.90;;;;;;5095870;28;20202;-76
2021/01/24 08:46:23;;;;;;;13.13;10.13;;;5.10;99.90;;;;;;5082028;28;20213;-75
2021/01/24 08:49:01;;;;;;;14.60;9.77;;;5.30;99.90;;;;;;5084947;28;20195;-76
2021/01/24 08:51:40;;;;;;;13.13;10.60;;;5.90;99.90;;;;;;5080891;28;20281;-75
2021/01/24 08:54:14;;;;;;;13.10;9.00;;;5.80;99.90;;;;;;5087162;28;20217;-75
2021/01/24 08:56:40;;;;;;;14.23;9.37;;;5.90;99.90;;;;;;5077913;28;20199;-75
2021/01/24 08:59:20;;;;;;;14.03;9.80;;;6.30;99.90;;;;;;5095907;28;20208;-76
2021/01/24 09:01:47;;;;;;;13.87;10.50;;;6.70;99.90;;;;;;5095787;28;20196;-76
2021/01/24 09:04:24;;;;;;;15.93;10.57;;;6.90;99.90;;;;;;5087811;28;20706;-75
2021/01/24 09:07:19;;;;;;;14.80;10.13;;;7.10;99.90;;;;;;5077300;28;20251;-77
2021/01/24 09:09:46;;;;;;;15.13;9.87;;;6.90;99.90;;;;;;5071155;28;20292;-76
2021/01/24 09:12:15;;;;;;;12.13;9.23;;;7.10;99.90;;;;;;5095497;28;20190;-76
2021/01/24 09:14:42;;;;;;;14.80;9.50;;;7.20;99.90;;;;;;5084902;28;20681;-76
2021/01/24 09:17:11;;;;;;;13.73;10.23;;;7.30;99.90;;;;;;5092137;28;20206;-76
2021/01/24 09:19:39;;;;;;;13.97;10.07;;;7.40;99.90;;;;;;5086240;28;20198;-75
2021/01/24 09:22:08;;;;;;;12.50;9.77;;;7.50;99.90;;;;;;5076203;28;20209;-77
2021/01/24 09:24:35;;;;;;;15.73;9.40;;;7.90;99.90;;;;;;5087946;28;20195;-76
2021/01/24 09:27:02;;;;;;;13.63;9.77;;;8.00;99.90;;;;;;5075446;28;20203;-77
2021/01/24 09:29:28;;;;;;;12.47;9.07;;;7.70;99.90;;;;;;5061546;28;20195;-77
2021/01/24 09:31:55;;;;;;;12.80;9.87;;;7.60;99.90;;;;;;5075381;28;20263;-76
2021/01/24 09:34:21;;;;;;;14.67;10.50;;;6.90;99.90;;;;;;5093436;28;20228;-77
2021/01/24 09:36:48;;;;;;;13.03;10.23;;;6.20;99.90;;;;;;5095560;28;20206;-77
2021/01/24 09:39:14;;;;;;;16.43;11.30;;;5.60;99.90;;;;;;5092601;28;20202;-76
2021/01/24 09:41:41;;;;;;;14.60;11.10;;;4.80;99.90;;;;;;5075213;28;20195;-76
2021/01/24 09:44:08;;;;;;;14.23;10.90;;;4.60;99.90;;;;;;5089772;28;20255;-77
2021/01/24 09:46:35;;;;;;;16.67;10.97;;;4.30;99.90;;;;;;5095204;28;20248;-77
2021/01/24 09:49:01;;;;;;;15.40;11.13;;;4.20;99.90;;;;;;5094810;28;20591;-76
2021/01/24 09:51:28;;;;;;;14.63;11.37;;;4.00;99.90;;;;;;5089991;28;20201;-77
2021/01/24 09:53:56;;;;;;;16.30;11.57;;;4.00;99.90;;;;;;5078629;28;20199;-77
2021/01/24 09:56:24;;;;;;;16.90;12.07;;;3.90;99.90;;;;;;5088297;28;20599;-77
2021/01/24 09:58:51;;;;;;;18.10;13.17;;;3.90;99.90;;;;;;5080553;28;20196;-76
2021/01/24 10:01:18;;;;;;;18.73;12.93;;;3.90;99.90;;;;;;5094582;28;20206;-77
2021/01/24 10:03:45;;;;;;;18.27;12.77;;;3.90;99.90;;;;;;5079661;28;20222;-77
2021/01/24 10:06:12;;;;;;;19.83;12.77;;;3.80;99.90;;;;;;5084163;28;20209;-77
2021/01/24 10:08:38;;;;;;;19.53;14.60;;;3.80;99.90;;;;;;5090916;28;20335;-77
2021/01/24 10:11:05;;;;;;;21.73;13.70;;;3.90;99.90;;;;;;5094850;28;20285;-77
2021/01/24 10:13:31;;;;;;;27.90;15.10;;;3.80;99.90;;;;;;5094513;28;20198;-77
2021/01/24 10:15:58;;;;;;;17.40;11.93;;;3.90;99.90;;;;;;5094700;28;20222;-77
2021/01/24 10:18:25;;;;;;;21.20;13.63;;;3.90;99.90;;;;;;5094368;28;20202;-77
2021/01/24 10:20:51;;;;;;;20.47;12.60;;;4.00;99.90;;;;;;5079855;28;20206;-77
2021/01/24 10:23:21;;;;;;;18.90;13.10;;;3.90;99.90;;;;;;5094289;28;20282;-76
2021/01/24 10:25:48;;;;;;;17.87;11.80;;;3.90;99.90;;;;;;5080214;28;20214;-78
2021/01/24 10:28:15;;;;;;;27.03;14.60;;;3.90;99.90;;;;;;5094195;28;20198;-77
2021/01/24 10:30:42;;;;;;;23.33;13.27;;;3.90;99.90;;;;;;5092143;28;20202;-77
2021/01/24 10:33:10;;;;;;;20.33;12.90;;;3.90;99.90;;;;;;5082255;28;20198;-77
2021/01/24 10:35:37;;;;;;;19.50;12.90;;;3.80;99.90;;;;;;5079756;28;20226;-76
2021/01/24 10:38:03;;;;;;;25.03;13.07;;;3.90;99.90;;;;;;5087605;28;20203;-76
2021/01/24 10:40:30;;;;;;;18.97;11.80;;;3.80;99.90;;;;;;5086869;28;20291;-77
2021/01/24 10:42:57;;;;;;;18.13;12.93;;;3.90;99.90;;;;;;5088711;28;20206;-77
2021/01/24 10:45:24;;;;;;;23.07;13.43;;;3.80;99.90;;;;;;5084614;28;20206;-77
2021/01/24 10:47:51;;;;;;;22.10;13.07;;;3.90;99.90;;;;;;5093846;28;20198;-76
2021/01/24 10:50:18;;;;;;;19.23;12.50;;;3.80;99.90;;;;;;5093642;28;20578;-77
2021/01/24 10:52:44;;;;;;;21.03;12.80;;;3.90;99.90;;;;;;5077862;28;20213;-77
2021/01/24 10:55:11;;;;;;;17.60;13.13;;;3.90;99.90;;;;;;5073476;28;20313;-77
2021/01/24 10:57:38;;;;;;;21.27;12.90;;;3.90;99.90;;;;;;5083785;28;20610;-77
2021/01/24 11:00:06;;;;;;;20.57;13.17;;;3.90;99.90;;;;;;5079517;28;20199;-77
2021/01/24 11:02:33;;;;;;;18.00;13.37;;;4.00;99.90;;;;;;5093418;28;20198;-78
2021/01/24 11:04:59;;;;;;;18.63;12.50;;;4.10;99.90;;;;;;5092684;28;20639;-78
2021/01/24 11:07:26;;;;;;;19.87;13.10;;;4.10;99.90;;;;;;5073351;28;20214;-77
2021/01/24 11:09:53;;;;;;;20.97;13.43;;;4.00;99.90;;;;;;5086486;28;20198;-78
2021/01/24 11:12:19;;;;;;;21.70;13.57;;;4.10;99.90;;;;;;5078982;28;20198;-78
2021/01/24 11:14:46;;;;;;;21.53;14.33;;;4.10;99.90;;;;;;5082522;28;20279;-78
2021/01/24 11:17:12;;;;;;;22.07;12.53;;;4.30;99.90;;;;;;5073680;28;20199;-77
2021/01/24 11:19:39;;;;;;;21.30;14.13;;;4.40;99.90;;;;;;5073347;28;20245;-78
2021/01/24 11:22:05;;;;;;;21.93;12.90;;;4.30;99.90;;;;;;5087778;28;20209;-79
2021/01/24 11:24:32;;;;;;;22.37;12.50;;;4.40;99.90;;;;;;5073069;28;20646;-78
2021/01/24 11:26:59;;;;;;;23.60;13.03;;;4.30;99.90;;;;;;5086858;28;20706;-77
2021/01/24 11:29:25;;;;;;;20.80;12.27;;;4.40;99.90;;;;;;5093142;28;20208;-79
2021/01/24 11:31:52;;;;;;;17.13;11.03;;;4.30;99.90;;;;;;5081282;28;20256;-78
2021/01/24 11:34:18;;;;;;;18.77;12.23;;;4.40;99.90;;;;;;5090939;28;20293;-79
2021/01/24 11:36:45;;;;;;;19.40;12.17;;;4.40;99.90;;;;;;5093497;28;20298;-79
2021/01/24 11:39:11;;;;;;;17.50;12.67;;;4.40;99.90;;;;;;5077288;28;20208;-77
2021/01/24 11:41:38;;;;;;;20.33;12.50;;;4.30;99.90;;;;;;5081148;28;20664;-79
2021/01/24 11:44:05;;;;;;;20.57;13.13;;;4.50;99.90;;;;;;5093024;28;20202;-79
2021/01/24 11:46:32;;;;;;;17.63;12.17;;;4.40;99.90;;;;;;5079931;28;20210;-79
2021/01/24 11:48:58;;;;;;;18.27;11.63;;;4.50;99.90;;;;;;5093332;28;20331;-79
2021/01/24 11:51:25;;;;;;;17.80;11.63;;;4.40;99.90;;;;;;5075878;28;20223;-78
2021/01/24 11:53:51;;;;;;;15.57;11.60;;;4.20;99.90;;;;;;5077503;28;20191;-78
2021/01/24 11:56:17;;;;;;;19.70;11.77;;;4.20;99.90;;;;;;5087535;28;20274;-78
2021/01/24 11:58:45;;;;;;;18.47;11.73;;;4.10;99.90;;;;;;5096845;28;20191;-78
2021/01/24 12:01:11;;;;;;;17.90;12.80;;;4.20;99.90;;;;;;5086240;28;20267;-79
2021/01/24 12:03:37;;;;;;;18.87;12.60;;;4.20;99.90;;;;;;5079872;28;20688;-79
2021/01/24 12:06:04;;;;;;;18.33;12.47;;;4.20;99.90;;;;;;5097209;28;20596;-79
2021/01/24 12:08:31;;;;;;;16.87;11.73;;;4.10;99.90;;;;;;5096706;28;20607;-79
2021/01/24 12:10:57;;;;;;;16.80;10.97;;;4.10;99.90;;;;;;5096878;28;20701;-78
2021/01/24 12:13:23;;;;;;;16.10;11.33;;;4.00;99.90;;;;;;5097258;28;20267;-79
2021/01/24 12:15:50;;;;;;;15.33;10.90;;;4.00;99.90;;;;;;5076644;28;20364;-78
2021/01/24 12:18:17;;;;;;;17.23;11.70;;;4.10;99.90;;;;;;5088464;28;20652;-78
2021/01/24 12:20:44;;;;;;;15.67;11.20;;;4.10;99.90;;;;;;5081903;28;20205;-78
2021/01/24 12:23:10;;;;;;;18.00;12.27;;;4.20;99.90;;;;;;5096638;28;20204;-78
2021/01/24 12:25:36;;;;;;;20.77;12.50;;;4.30;99.90;;;;;;5082200;28;20293;-78
2021/01/24 12:28:03;;;;;;;18.30;11.80;;;4.30;99.90;;;;;;5088341;28;20307;-79
2021/01/24 12:30:29;;;;;;;21.10;12.37;;;4.30;99.90;;;;;;5090758;28;20653;-79
2021/01/24 12:32:57;;;;;;;19.47;12.63;;;4.30;99.90;;;;;;5096727;28;20289;-79
2021/01/24 12:35:23;;;;;;;19.33;12.60;;;4.30;99.90;;;;;;5096330;28;20817;-79
2021/01/24 12:37:53;;;;;;;18.83;11.23;;;4.30;99.90;;;;;;5096236;28;20658;-78
2021/01/24 12:40:20;;;;;;;17.03;10.93;;;4.20;99.90;;;;;;5096322;28;20249;-78
2021/01/24 12:42:47;;;;;;;14.50;10.83;;;4.20;99.90;;;;;;5078422;28;20203;-80
2021/01/24 12:45:14;;;;;;;17.57;12.43;;;4.20;99.90;;;;;;5085450;28;20577;-78